Time;durP1;ratioP1;P1;durP2;ratioP2;P2;SDS_P1;SDS_P2;PMS_P1;PMS_P2;Temp;Humidity;BMP_temperature;BMP_pressure;BME280_temperature;BME280_humidity;BME280_pressure;Samples;Min_cycle;Max_cycle;Signal;HPM_P1;HPM_P2
2021/11/22 00:00:16;;;;;;;71.60;35.20;;;;;;;7.92;100.00;98287.75;5112659;28;20035;-94
2021/11/22 00:02:44;;;;;;;66.47;33.70;;;;;;;7.90;100.00;98258.66;5119190;28;20040;-94
2021/11/22 00:05:10;;;;;;;69.50;33.63;;;;;;;8.07;100.00;98282.06;5112696;28;20130;-92
2021/11/22 00:07:36;;;;;;;65.43;33.05;;;;;;;8.01;100.00;98261.03;5112445;28;20032;-95
2021/11/22 00:10:04;;;;;;;69.75;33.47;;;;;;;8.08;100.00;98270.56;5112701;28;20093;-94
2021/11/22 00:12:30;;;;;;;66.45;31.38;;;;;;;8.02;100.00;98268.06;5112263;28;20085;-93
2021/11/22 00:14:56;;;;;;;71.55;34.10;;;;;;;8.02;100.00;98268.06;5112092;28;20035;-94
2021/11/22 00:17:23;;;;;;;64.68;33.83;;;;;;;7.94;100.00;98256.81;5111371;28;20039;-95
2021/11/22 00:19:50;;;;;;;68.07;34.10;;;;;;;8.00;100.00;98283.09;5110844;28;20101;-93
2021/11/22 00:22:17;;;;;;;71.43;35.22;;;;;;;8.01;100.00;98291.03;5112551;28;20400;-93
2021/11/22 00:24:44;;;;;;;74.47;36.95;;;;;;;7.96;100.00;98286.75;5112496;28;20040;-94
2021/11/22 00:27:10;;;;;;;69.60;34.47;;;;;;;7.88;100.00;98281.66;5112271;28;20048;-93
2021/11/22 00:29:38;;;;;;;68.05;34.97;;;;;;;7.75;100.00;98273.13;5112197;28;20032;-94
2021/11/22 00:32:05;;;;;;;69.85;36.55;;;;;;;7.70;100.00;98263.53;5110585;28;20089;-93
2021/11/22 00:34:41;;;;;;;80.15;38.10;;;;;;;7.70;100.00;98272.38;5110302;28;20574;-93
2021/11/22 00:37:12;;;;;;;77.35;38.58;;;;;;;7.55;100.00;98247.13;5111883;28;20093;-92
2021/11/22 00:39:39;;;;;;;72.78;37.70;;;;;;;7.54;100.00;98249.81;5097844;28;20115;-94
2021/11/22 00:42:07;;;;;;;81.82;39.08;;;;;;;7.45;100.00;98231.50;5097941;28;20055;-91
2021/11/22 00:44:34;;;;;;;75.28;39.75;;;;;;;7.37;100.00;98229.03;5097517;28;20071;-94
2021/11/22 00:47:00;;;;;;;79.18;38.75;;;;;;;7.44;100.00;98249.16;5097022;28;20082;-95
2021/11/22 00:49:27;;;;;;;74.85;38.35;;;;;;;7.28;100.00;98221.31;5098012;28;20798;-95
2021/11/22 00:51:53;;;;;;;77.57;39.20;;;;;;;7.34;100.00;98237.03;5098274;28;20375;-95
2021/11/22 00:54:20;;;;;;;71.80;37.72;;;;;;;7.40;100.00;98253.63;5096562;28;20055;-93
2021/11/22 00:56:49;;;;;;;71.40;37.05;;;;;;;7.44;100.00;98258.84;5098254;28;20040;-94
2021/11/22 00:59:15;;;;;;;73.35;37.30;;;;;;;7.34;100.00;98237.03;5097716;28;20039;-93
2021/11/22 01:01:42;;;;;;;72.07;36.85;;;;;;;7.33;100.00;98237.94;5097106;28;20055;-94
2021/11/22 01:04:08;;;;;;;77.30;38.00;;;;;;;7.33;100.00;98246.75;5097952;28;20044;-94
2021/11/22 01:06:34;;;;;;;75.55;36.60;;;;;;;7.20;100.00;98237.38;5097981;28;20515;-94
2021/11/22 01:09:00;;;;;;;71.80;36.00;;;;;;;7.20;100.00;98246.16;5093215;28;20131;-93
2021/11/22 01:11:28;;;;;;;72.50;36.15;;;;;;;7.15;100.00;98232.16;5097879;28;20042;-95
2021/11/22 01:13:55;;;;;;;72.43;37.70;;;;;;;7.16;100.00;98233.91;5097912;28;20040;-93
2021/11/22 01:16:20;;;;;;;70.28;36.38;;;;;;;7.11;100.00;98226.97;5096544;28;20040;-92
2021/11/22 01:18:46;;;;;;;73.70;36.58;;;;;;;7.20;100.00;98246.16;5097677;28;20100;-94
2021/11/22 01:21:12;;;;;;;75.93;36.40;;;;;;;7.12;100.00;98229.59;5097278;28;20089;-93
2021/11/22 01:23:39;;;;;;;68.82;36.30;;;;;;;7.18;100.00;98244.47;5097717;28;20105;-93
2021/11/22 01:26:06;;;;;;;64.70;34.53;;;;;;;7.07;100.00;98226.19;5097100;28;20040;-94
2021/11/22 01:28:35;;;;;;;72.78;35.80;;;;;;;6.99;100.00;98212.25;5097364;28;20486;-94
2021/11/22 01:31:01;;;;;;;76.93;37.35;;;;;;;6.97;100.00;98219.34;5097613;28;20040;-94
2021/11/22 01:33:27;;;;;;;75.82;36.97;;;;;;;7.05;100.00;98233.28;5097174;28;20089;-94
2021/11/22 01:35:53;;;;;;;68.22;36.78;;;;;;;7.08;100.00;98212.03;5097367;28;20036;-94
2021/11/22 01:38:20;;;;;;;78.70;39.15;;;;;;;7.04;100.00;98214.78;5096921;28;20067;-93
2021/11/22 01:40:46;;;;;;;70.32;37.50;;;;;;;7.06;100.00;98227.06;5097926;28;20417;-93
2021/11/22 01:46:22;;;;;;;73.65;35.50;;;;;;;6.97;100.00;98211.41;5153010;27;20390;-93
2021/11/22 01:48:49;;;;;;;62.80;31.98;;;;;;;7.09;100.00;98228.78;5141083;27;20078;-94
2021/11/22 01:51:15;;;;;;;68.53;34.38;;;;;;;7.03;100.00;98227.16;5145030;27;20058;-95
2021/11/22 01:53:44;;;;;;;69.78;35.25;;;;;;;6.91;100.00;98206.25;5139917;27;20043;-94
2021/11/22 01:56:10;;;;;;;72.93;36.42;;;;;;;6.97;100.00;98222.00;5149346;27;20047;-94
2021/11/22 01:58:37;;;;;;;68.85;37.20;;;;;;;7.00;100.00;98224.56;5146947;27;20045;-94
2021/11/22 02:01:05;;;;;;;75.25;36.83;;;;;;;6.89;100.00;98176.34;5143232;27;20504;-94
2021/11/22 02:03:33;;;;;;;72.20;36.33;;;;;;;7.09;100.00;98194.41;5139924;27;20036;-92
2021/11/22 02:05:59;;;;;;;68.10;32.53;;;;;;;7.31;100.00;98215.97;5149288;27;20035;-93
2021/11/22 02:08:26;;;;;;;70.25;35.92;;;;;;;7.30;100.00;98204.50;5123103;27;20067;-94
2021/11/22 02:10:53;;;;;;;76.47;36.45;;;;;;;7.30;100.00;98198.34;5149495;27;20035;-94
2021/11/22 02:13:20;;;;;;;71.93;34.58;;;;;;;7.30;100.00;98188.63;5149473;27;20079;-94
2021/11/22 02:15:46;;;;;;;69.78;34.30;;;;;;;7.27;100.00;98183.41;5149791;27;20052;-93
2021/11/22 02:18:12;;;;;;;66.03;33.95;;;;;;;7.32;100.00;98199.19;5140716;27;20048;-93
2021/11/22 02:20:40;;;;;;;66.75;33.92;;;;;;;7.27;100.00;98188.72;5137728;27;20550;-95
2021/11/22 02:23:09;;;;;;;68.93;33.92;;;;;;;7.24;100.00;98182.59;5149710;27;20059;-95
2021/11/22 02:25:37;;;;;;;66.67;32.60;;;;;;;7.28;100.00;98195.72;5141462;27;20036;-95
2021/11/22 02:28:04;;;;;;;59.83;33.00;;;;;;;7.28;100.00;98202.78;5147614;27;20277;-95
2021/11/22 02:30:35;;;;;;;56.75;30.08;;;;;;;7.16;100.00;98174.88;5143699;27;20031;-95
2021/11/22 02:33:03;;;;;;;61.67;31.50;;;;;;;7.19;100.00;98182.72;5143405;27;20043;-94
2021/11/22 02:35:30;;;;;;;59.80;30.70;;;;;;;7.27;100.00;98188.72;5145274;27;20051;-94
2021/11/22 02:37:58;;;;;;;59.30;29.95;;;;;;;7.16;100.00;98162.50;5147528;27;20293;-95
2021/11/22 02:40:24;;;;;;;57.28;29.35;;;;;;;7.24;100.00;98161.44;5144303;27;20401;-93
2021/11/22 02:42:52;;;;;;;65.07;31.88;;;;;;;7.33;100.00;98169.16;5136171;27;20046;-95
2021/11/22 02:45:21;;;;;;;61.67;31.00;;;;;;;7.33;100.00;98177.09;5144772;27;20058;-95
2021/11/22 02:47:49;;;;;;;62.25;31.17;;;;;;;7.39;100.00;98180.50;5138046;27;20481;-93
2021/11/22 02:50:16;;;;;;;60.63;31.20;;;;;;;7.33;100.00;98166.50;5140136;27;20496;-95
2021/11/22 02:52:43;;;;;;;62.00;32.22;;;;;;;7.32;100.00;98168.28;5142816;27;20043;-93
2021/11/22 02:55:12;;;;;;;62.08;30.75;;;;;;;7.25;100.00;98150.00;5145980;27;20039;-95
2021/11/22 02:57:38;;;;;;;58.67;29.98;;;;;;;7.38;100.00;98168.16;5129171;27;20040;-95
2021/11/22 03:00:08;;;;;;;62.33;30.52;;;;;;;7.38;100.00;98151.44;5128354;27;20123;-95
2021/11/22 03:02:36;;;;;;;50.47;25.25;;;;;;;7.48;100.00;98152.06;5121712;27;20040;-94
2021/11/22 03:05:02;;;;;;;54.22;26.52;;;;;;;7.79;100.00;98178.66;5127842;27;20074;-93
2021/11/22 03:07:28;;;;;;;61.92;29.20;;;;;;;7.75;100.00;98166.38;5133766;27;20043;-94
2021/11/22 03:09:54;;;;;;;49.33;24.67;;;;;;;7.78;100.00;98153.94;5127566;27;20036;-94
2021/11/22 03:12:23;;;;;;;57.78;29.73;;;;;;;7.70;100.00;98155.94;5126200;27;20092;-93
2021/11/22 03:14:49;;;;;;;50.77;25.33;;;;;;;7.89;100.00;98177.47;5127041;27;20042;-95
2021/11/22 03:17:15;;;;;;;53.75;28.15;;;;;;;7.80;100.00;98172.41;5125080;27;20268;-94
2021/11/22 03:19:41;;;;;;;55.78;27.25;;;;;;;7.75;100.00;98185.78;5139340;27;20047;-94
2021/11/22 03:22:07;;;;;;;50.70;25.13;;;;;;;7.70;100.00;98150.63;5136473;27;20043;-93
2021/11/22 03:24:34;;;;;;;55.95;26.70;;;;;;;7.75;100.00;98153.16;5127920;27;20036;-94
2021/11/22 03:27:01;;;;;;;55.50;27.48;;;;;;;7.72;100.00;98161.16;5126068;27;20039;-93
2021/11/22 03:29:28;;;;;;;51.72;27.13;;;;;;;7.69;100.00;98158.59;5126213;27;20500;-94
2021/11/22 03:31:54;;;;;;;54.03;26.95;;;;;;;7.58;100.00;98149.16;5123965;27;20039;-92
2021/11/22 03:34:20;;;;;;;58.88;27.27;;;;;;;7.56;100.00;98136.88;5123909;27;20038;-91
2021/11/22 03:36:46;;;;;;;49.05;25.58;;;;;;;7.67;100.00;98155.97;5133288;27;20039;-95
2021/11/22 03:42:18;;;;;;;54.38;27.42;;;;;;;7.59;100.00;98153.53;5150409;27;20376;-93
2021/11/22 03:44:45;;;;;;;54.05;27.33;;;;;;;7.50;100.00;98137.88;5135415;27;20047;-94
2021/11/22 03:47:12;;;;;;;53.67;27.60;;;;;;;7.62;100.00;98149.94;5133536;27;20039;-93
2021/11/22 03:49:38;;;;;;;54.53;26.30;;;;;;;7.61;100.00;98150.84;5134470;28;20038;-94
2021/11/22 03:52:05;;;;;;;54.05;27.08;;;;;;;7.62;100.00;98155.25;5135418;28;20430;-93
2021/11/22 03:54:31;;;;;;;50.42;26.83;;;;;;;7.69;100.00;98162.09;5133796;27;20047;-93
2021/11/22 03:56:57;;;;;;;58.30;29.02;;;;;;;7.53;100.00;98148.41;5135581;27;20071;-95
2021/11/22 03:59:25;;;;;;;52.15;26.33;;;;;;;7.66;100.00;98169.28;5135186;28;20134;-95
2021/11/22 04:01:51;;;;;;;52.55;26.45;;;;;;;7.57;100.00;98150.06;5133023;27;20039;-94
2021/11/22 04:04:16;;;;;;;51.03;27.25;;;;;;;7.61;100.00;98162.31;5135542;27;20066;-93
2021/11/22 04:06:42;;;;;;;54.38;27.15;;;;;;;7.64;100.00;98155.22;5134284;28;20031;-93
2021/11/22 04:09:10;;;;;;;50.58;26.05;;;;;;;7.67;100.00;98161.28;5134433;27;20050;-93
2021/11/22 04:11:36;;;;;;;56.10;27.33;;;;;;;7.57;100.00;98138.63;5138760;27;20043;-93
2021/11/22 04:14:02;;;;;;;54.92;27.33;;;;;;;7.69;100.00;98154.16;5133337;27;20520;-91
2021/11/22 04:16:30;;;;;;;52.78;26.45;;;;;;;7.58;100.00;98140.34;5131941;27;20040;-93
2021/11/22 04:18:56;;;;;;;49.35;26.02;;;;;;;7.67;100.00;98144.53;5132141;27;20066;-93
2021/11/22 04:21:24;;;;;;;49.25;26.83;;;;;;;7.66;100.00;98146.31;5137997;27;20523;-93
2021/11/22 04:23:50;;;;;;;56.70;27.27;;;;;;;7.71;100.00;98155.00;5135324;27;20100;-93
2021/11/22 04:26:18;;;;;;;53.90;27.05;;;;;;;7.59;100.00;98140.31;5132245;27;20074;-93
2021/11/22 04:28:44;;;;;;;51.80;27.17;;;;;;;7.58;100.00;98135.91;5132094;27;20453;-94
2021/11/22 04:31:10;;;;;;;52.03;26.95;;;;;;;7.53;100.00;98137.81;5131355;28;20146;-93
2021/11/22 04:33:38;;;;;;;51.40;26.90;;;;;;;7.54;100.00;98138.69;5131923;27;20038;-93
2021/11/22 04:36:06;;;;;;;53.58;28.17;;;;;;;7.52;100.00;98132.56;5132216;27;20040;-93
2021/11/22 04:38:33;;;;;;;52.95;27.05;;;;;;;7.43;100.00;98120.44;5132132;27;20047;-93
2021/11/22 04:41:02;;;;;;;57.13;28.38;;;;;;;7.46;100.00;98133.59;5131462;28;20039;-93
2021/11/22 04:43:28;;;;;;;53.58;27.05;;;;;;;7.38;100.00;98127.63;5131579;28;20091;-92
2021/11/22 04:45:55;;;;;;;54.90;28.23;;;;;;;7.48;100.00;98138.81;5124279;28;20055;-93
2021/11/22 04:48:21;;;;;;;60.63;27.98;;;;;;;7.54;100.00;98154.56;5122632;28;20050;-93
2021/11/22 04:50:48;;;;;;;52.28;27.40;;;;;;;7.54;100.00;98155.41;5131563;28;20063;-94
2021/11/22 04:53:14;;;;;;;62.47;28.30;;;;;;;7.49;100.00;98136.16;5119654;27;20047;-93
2021/11/22 04:55:40;;;;;;;56.17;28.20;;;;;;;7.57;100.00;98157.16;5117428;28;20047;-93
2021/11/22 04:58:08;;;;;;;57.50;28.77;;;;;;;7.50;100.00;98143.16;5116750;28;20028;-93
2021/11/22 05:00:35;;;;;;;57.17;28.80;;;;;;;7.58;100.00;98145.63;5117174;28;20043;-94
2021/11/22 05:03:02;;;;;;;60.38;28.38;;;;;;;7.53;100.00;98151.06;5117875;28;20043;-93
2021/11/22 05:05:28;;;;;;;52.17;27.65;;;;;;;7.53;100.00;98145.75;5117909;28;20130;-93
2021/11/22 05:07:55;;;;;;;53.03;27.20;;;;;;;7.56;100.00;98144.81;5118054;28;20067;-94
2021/11/22 05:10:23;;;;;;;61.58;27.75;;;;;;;7.66;100.00;98163.97;5117728;28;20464;-94
2021/11/22 05:12:49;;;;;;;54.35;26.98;;;;;;;7.55;100.00;98143.94;5117981;28;20485;-95
2021/11/22 05:15:15;;;;;;;60.72;29.05;;;;;;;7.62;100.00;98163.19;5117262;28;20097;-93
2021/11/22 05:17:42;;;;;;;61.95;30.48;;;;;;;7.65;100.00;98167.53;5122876;27;20124;-94
2021/11/22 05:20:09;;;;;;;59.97;30.67;;;;;;;7.56;100.00;98155.38;5117302;27;20111;-93
2021/11/22 05:22:36;;;;;;;59.25;31.00;;;;;;;7.63;100.00;98178.13;5117651;28;20100;-93
2021/11/22 05:25:04;;;;;;;56.55;29.73;;;;;;;7.40;100.00;98133.75;5117861;28;20101;-93
2021/11/22 05:27:31;;;;;;;63.70;30.35;;;;;;;7.51;100.00;98165.22;5117127;28;20054;-92
2021/11/22 05:29:57;;;;;;;59.83;30.08;;;;;;;7.54;100.00;98163.34;5117637;28;20052;-93
2021/11/22 05:32:23;;;;;;;60.70;29.27;;;;;;;7.61;100.00;98172.91;5116353;28;20115;-94
2021/11/22 05:34:51;;;;;;;60.15;29.75;;;;;;;7.60;100.00;98176.44;5118988;27;20047;-94
2021/11/22 05:37:17;;;;;;;58.17;30.23;;;;;;;7.66;100.00;98180.72;5117057;28;20123;-94
2021/11/22 05:39:44;;;;;;;58.88;30.33;;;;;;;7.68;100.00;98184.19;5117233;28;20089;-93
2021/11/22 05:42:12;;;;;;;56.72;29.17;;;;;;;7.58;100.00;98165.03;5118539;27;20508;-93
2021/11/22 05:44:38;;;;;;;62.60;30.35;;;;;;;7.53;100.00;98158.97;5116896;28;20039;-94
2021/11/22 05:47:07;;;;;;;57.75;29.52;;;;;;;7.55;100.00;98157.19;5116154;28;20054;-93
2021/11/22 05:49:35;;;;;;;59.70;30.50;;;;;;;7.60;100.00;98163.22;5116914;28;20067;-91
2021/11/22 05:52:04;;;;;;;63.65;28.23;;;;;;;7.61;100.00;98172.91;5116889;28;20043;-93
2021/11/22 05:54:32;;;;;;;54.15;28.13;;;;;;;7.63;100.00;98182.56;5116638;28;20094;-93
2021/11/22 05:56:58;;;;;;;52.97;26.88;;;;;;;7.58;100.00;98175.59;5116149;28;20043;-92
2021/11/22 05:59:26;;;;;;;53.85;27.80;;;;;;;7.65;100.00;98186.03;5116163;28;20044;-92
2021/11/22 06:01:52;;;;;;;55.88;28.05;;;;;;;7.63;100.00;98183.44;5115112;28;20039;-93
2021/11/22 06:04:18;;;;;;;51.55;25.90;;;;;;;7.77;100.00;98199.84;5115392;28;20114;-92
2021/11/22 06:06:47;;;;;;;59.28;29.98;;;;;;;7.65;100.00;98175.47;5116399;28;20473;-94
2021/11/22 06:09:14;;;;;;;56.83;27.73;;;;;;;7.64;100.00;98176.38;5111335;28;20032;-94
2021/11/22 06:11:40;;;;;;;57.47;28.17;;;;;;;7.64;100.00;98176.38;5116491;28;20031;-93
2021/11/22 06:14:06;;;;;;;52.70;27.55;;;;;;;7.68;100.00;98184.19;5116299;28;20483;-93
2021/11/22 06:16:35;;;;;;;49.13;27.00;;;;;;;7.75;100.00;98196.38;5116095;28;20067;-93
2021/11/22 06:19:01;;;;;;;50.30;27.13;;;;;;;7.72;100.00;98191.16;5116730;28;20103;-94
2021/11/22 06:21:31;;;;;;;52.38;28.85;;;;;;;7.70;100.00;98205.31;5117714;28;20080;-92
2021/11/22 06:24:00;;;;;;;57.78;29.17;;;;;;;7.68;100.00;98212.44;5118693;28;20161;-94
2021/11/22 06:26:26;;;;;;;59.95;28.98;;;;;;;7.63;100.00;98198.44;5117496;28;20048;-92
2021/11/22 06:28:52;;;;;;;58.83;29.83;;;;;;;7.74;100.00;98214.91;5113577;28;20044;-94
2021/11/22 06:31:20;;;;;;;56.60;28.20;;;;;;;7.79;100.00;98226.28;5115590;28;20119;-93
2021/11/22 06:34:39;;;;;;;53.30;26.33;;;;;;;7.80;100.00;98220.06;5116997;28;20043;-93
2021/11/22 06:37:28;;;;;;;61.97;30.95;;;;;;;7.80;100.00;98231.53;5098246;28;20481;-93
2021/11/22 06:39:57;;;;;;;63.85;33.20;;;;;;;7.75;100.00;98222.84;5115738;28;20044;-93
2021/11/22 06:42:23;;;;;;;66.85;34.20;;;;;;;7.75;100.00;98224.63;5116123;28;20039;-93
2021/11/22 06:44:50;;;;;;;65.78;33.95;;;;;;;7.77;100.00;98236.03;5116246;27;20047;-92
2021/11/22 06:47:16;;;;;;;64.57;34.45;;;;;;;7.75;100.00;98232.56;5115629;28;20044;-94
2021/11/22 06:49:44;;;;;;;67.50;35.20;;;;;;;7.54;100.00;98208.34;5116759;28;20039;-94
2021/11/22 06:52:10;;;;;;;76.18;39.58;;;;;;;7.53;100.00;98224.28;5116512;28;20397;-94
2021/11/22 06:54:36;;;;;;;71.90;39.17;;;;;;;7.48;100.00;98211.16;5116908;28;20087;-93
2021/11/22 06:57:03;;;;;;;72.40;38.03;;;;;;;7.59;100.00;98219.69;5118221;27;20059;-93
2021/11/22 06:59:29;;;;;;;74.25;39.60;;;;;;;7.56;100.00;98224.19;5116798;28;20497;-93
2021/11/22 07:01:55;;;;;;;77.70;40.40;;;;;;;7.61;100.00;98232.88;5115774;28;20500;-94
2021/11/22 07:04:21;;;;;;;76.40;40.05;;;;;;;7.53;100.00;98214.53;5106541;28;20054;-94
2021/11/22 07:06:49;;;;;;;80.70;42.95;;;;;;;7.61;100.00;98233.75;5116728;28;20043;-94
2021/11/22 07:09:15;;;;;;;95.03;46.83;;;;;;;7.50;100.00;98211.97;5115917;28;20043;-93
2021/11/22 07:11:43;;;;;;;90.50;46.72;;;;;;;7.50;100.00;98204.03;5118089;28;20039;-94
2021/11/22 07:14:09;;;;;;;98.53;46.40;;;;;;;7.60;100.00;98212.63;5117025;28;20043;-94
2021/11/22 07:16:38;;;;;;;90.85;43.00;;;;;;;7.52;100.00;98190.75;5132426;27;20073;-94
2021/11/22 07:19:04;;;;;;;84.13;42.90;;;;;;;7.73;100.00;98223.78;5121327;27;20061;-94
2021/11/22 07:21:30;;;;;;;91.75;43.65;;;;;;;7.68;100.00;98213.31;5117005;28;20044;-93
2021/11/22 07:23:58;;;;;;;83.40;41.15;;;;;;;7.92;100.00;98233.00;5115803;28;20039;-94
2021/11/22 07:26:24;;;;;;;74.85;38.42;;;;;;;8.14;100.00;98254.50;5115855;28;20039;-94
2021/11/22 07:28:50;;;;;;;78.35;39.97;;;;;;;7.99;100.00;98218.69;5115865;28;20471;-93
2021/11/22 07:31:16;;;;;;;76.68;39.30;;;;;;;8.05;100.00;98224.75;5115267;28;20035;-94
2021/11/22 07:33:42;;;;;;;78.88;39.95;;;;;;;8.17;100.00;98219.13;5115443;28;20047;-94
2021/11/22 07:36:08;;;;;;;78.40;40.60;;;;;;;8.22;100.00;98233.16;5115907;28;20484;-93
2021/11/22 07:38:35;;;;;;;94.93;44.08;;;;;;;8.19;100.00;98241.16;5118516;28;20062;-94
2021/11/22 07:41:03;;;;;;;77.13;39.67;;;;;;;8.19;100.00;98220.81;5118033;28;20048;-93
2021/11/22 07:43:29;;;;;;;82.97;42.00;;;;;;;8.47;100.00;98245.75;5116095;28;20123;-95
2021/11/22 07:45:55;;;;;;;84.22;38.58;;;;;;;8.57;100.00;98241.97;5115193;28;20062;-95
2021/11/22 07:48:25;;;;;;;77.75;39.90;;;;;;;8.57;100.00;98232.22;5117038;27;20389;-95
2021/11/22 07:50:51;;;;;;;78.50;40.17;;;;;;;8.55;100.00;98223.44;5118545;28;20044;-94
2021/11/22 07:53:19;;;;;;;79.75;39.35;;;;;;;8.71;100.00;98228.31;5119757;28;20044;-94
2021/11/22 07:55:47;;;;;;;69.60;36.97;;;;;;;8.73;100.00;98227.34;5120448;28;20051;-94
2021/11/22 07:58:14;;;;;;;69.88;35.38;;;;;;;8.68;100.00;98216.00;5119895;28;20036;-93
2021/11/22 08:00:40;;;;;;;77.97;36.20;;;;;;;8.90;100.00;98249.88;5119888;28;20527;-93
2021/11/22 08:03:07;;;;;;;75.95;36.08;;;;;;;8.96;100.00;98226.69;5118740;28;20049;-95
2021/11/22 08:05:33;;;;;;;67.53;33.72;;;;;;;8.96;100.00;98212.56;5118004;28;20086;-96
2021/11/22 08:08:00;;;;;;;63.97;31.25;;;;;;;9.24;100.00;98221.44;5118651;28;20393;-92
2021/11/22 08:13:27;;;;;;;59.47;30.27;;;;;;;9.25;99.29;98212.53;5106897;27;20383;-94
2021/11/22 08:15:53;;;;;;;62.67;29.25;;;;;;;9.38;99.96;98222.78;5066490;28;20122;-93
2021/11/22 08:18:19;;;;;;;57.65;29.55;;;;;;;9.39;100.00;98220.09;5053563;28;20491;-94
2021/11/22 08:20:45;;;;;;;53.40;27.23;;;;;;;9.53;99.30;98232.94;5054073;28;20071;-93
2021/11/22 08:23:11;;;;;;;58.28;27.95;;;;;;;9.56;99.91;98227.50;5055010;28;20045;-92
2021/11/22 08:25:37;;;;;;;56.75;27.90;;;;;;;9.43;99.46;98224.41;5054510;28;20075;-93
2021/11/22 08:28:03;;;;;;;54.15;29.05;;;;;;;9.56;100.00;98235.47;5054644;28;20049;-94
2021/11/22 08:30:33;;;;;;;52.85;27.50;;;;;;;9.65;99.43;98227.25;5034540;28;20073;-94
2021/11/22 08:32:59;;;;;;;48.97;26.25;;;;;;;9.71;98.85;98238.56;5051344;28;20044;-94
2021/11/22 08:35:28;;;;;;;55.47;27.95;;;;;;;9.74;98.36;98233.19;5064051;28;20174;-93
2021/11/22 08:37:57;;;;;;;53.13;26.63;;;;;;;9.72;98.65;98225.25;5057263;28;20049;-95
2021/11/22 08:40:24;;;;;;;53.10;28.63;;;;;;;9.83;98.97;98232.88;5056528;28;20049;-92
2021/11/22 08:42:52;;;;;;;58.00;29.98;;;;;;;10.00;99.21;98249.13;5054039;28;20045;-94
2021/11/22 08:45:18;;;;;;;64.07;30.75;;;;;;;10.13;98.86;98259.31;5054036;28;20041;-95
2021/11/22 08:47:46;;;;;;;58.55;29.35;;;;;;;10.12;98.15;98245.16;5054474;28;20045;-94
2021/11/22 08:50:13;;;;;;;62.22;34.25;;;;;;;9.98;96.52;98274.00;5055469;28;20049;-91
2021/11/22 08:52:39;;;;;;;64.78;36.33;;;;;;;9.52;98.72;98240.94;5056727;28;20037;-94
2021/11/22 08:55:06;;;;;;;67.72;33.80;;;;;;;9.53;99.00;98240.88;5067098;28;20040;-94
2021/11/22 08:57:32;;;;;;;60.97;33.83;;;;;;;9.58;99.00;98246.03;5056638;28;20127;-94
2021/11/22 08:59:58;;;;;;;61.75;32.22;;;;;;;9.56;99.90;98239.91;5054018;28;20041;-93
2021/11/22 09:02:24;;;;;;;58.10;31.10;;;;;;;9.65;99.84;98264.41;5055371;28;20068;-94
2021/11/22 09:04:52;;;;;;;54.47;29.05;;;;;;;9.60;100.00;98255.69;5054895;28;20037;-93
2021/11/22 09:07:18;;;;;;;70.15;31.65;;;;;;;9.66;100.00;98252.00;5050036;28;20041;-94
2021/11/22 09:09:44;;;;;;;63.45;30.83;;;;;;;9.71;100.00;98246.53;5052463;28;20099;-93
2021/11/22 09:12:11;;;;;;;57.55;28.83;;;;;;;9.85;100.00;98257.59;5052358;28;20041;-93
2021/11/22 09:14:37;;;;;;;60.55;30.92;;;;;;;9.90;100.00;98252.97;5052371;28;20065;-93
2021/11/22 09:17:03;;;;;;;68.97;35.22;;;;;;;9.89;100.00;98256.56;5051312;28;20045;-93
2021/11/22 09:19:30;;;;;;;74.90;41.78;;;;;;;9.87;100.00;98255.75;5048282;28;20041;-93
2021/11/22 09:21:58;;;;;;;77.13;44.17;;;;;;;9.79;100.00;98250.69;5052839;28;20033;-94
2021/11/22 09:24:24;;;;;;;78.45;42.88;;;;;;;9.77;100.00;98246.34;5041170;28;20047;-91
2021/11/22 09:26:50;;;;;;;74.43;40.92;;;;;;;9.81;100.00;98261.25;5040129;28;20042;-95
2021/11/22 09:29:16;;;;;;;74.78;40.42;;;;;;;9.75;100.00;98248.16;5040303;28;20041;-94
2021/11/22 09:31:42;;;;;;;81.13;43.17;;;;;;;9.83;100.00;98264.72;5038723;28;20100;-93
2021/11/22 09:34:09;;;;;;;87.28;45.08;;;;;;;9.88;100.00;98268.97;5038164;28;20136;-94
2021/11/22 09:36:35;;;;;;;82.10;44.95;;;;;;;9.74;100.00;98252.63;5038338;28;20072;-94
2021/11/22 09:39:03;;;;;;;85.03;45.35;;;;;;;9.70;100.00;98243.00;5039789;28;20053;-94
2021/11/22 09:41:30;;;;;;;89.10;47.28;;;;;;;9.75;100.00;98254.34;5038085;28;20502;-94
2021/11/22 09:43:57;;;;;;;91.45;46.47;;;;;;;9.69;100.00;98229.78;5039275;28;20080;-93
2021/11/22 09:46:24;;;;;;;78.28;43.00;;;;;;;9.87;100.00;98247.78;5038192;28;20069;-94
2021/11/22 09:48:50;;;;;;;83.38;44.03;;;;;;;9.77;100.00;98225.97;5038040;28;20046;-94
2021/11/22 09:51:16;;;;;;;86.63;45.88;;;;;;;9.94;100.00;98235.16;5038640;28;20094;-95
2021/11/22 09:53:43;;;;;;;83.80;43.88;;;;;;;10.03;100.00;98229.53;5040042;28;20049;-93
2021/11/22 09:56:11;;;;;;;93.45;44.55;;;;;;;10.24;100.00;98243.91;5040089;28;20045;-94
2021/11/22 09:58:38;;;;;;;84.95;46.40;;;;;;;10.30;100.00;98224.22;5039983;28;20044;-93
2021/11/22 10:01:09;;;;;;;89.63;47.80;;;;;;;10.49;100.00;98233.31;5039086;28;20041;-94
2021/11/22 10:03:35;;;;;;;82.15;45.00;;;;;;;10.51;100.00;98227.94;5038576;28;20046;-93
2021/11/22 10:06:03;;;;;;;84.30;41.33;;;;;;;10.56;99.60;98221.56;5038135;28;20042;-95
2021/11/22 10:08:37;;;;;;;75.85;40.35;;;;;;;10.63;99.15;98225.72;5040545;28;20041;-93
2021/11/22 10:11:08;;;;;;;73.55;40.33;;;;;;;10.71;98.67;98225.41;5038092;28;20403;-93
2021/11/22 10:13:37;;;;;;;70.85;39.88;;;;;;;10.76;98.03;98239.44;5041409;28;20037;-95
2021/11/22 10:16:22;;;;;;;72.25;40.03;;;;;;;10.72;98.26;98229.84;5037569;28;20073;-93
2021/11/22 10:18:50;;;;;;;68.68;39.25;;;;;;;10.62;98.15;98207.16;5038201;28;20139;-95
2021/11/22 10:21:18;;;;;;;82.80;45.08;;;;;;;10.65;98.21;98210.56;5037449;28;20049;-92
2021/11/22 10:23:46;;;;;;;86.00;44.20;;;;;;;10.52;98.62;98217.25;5038007;28;20136;-94
2021/11/22 10:26:15;;;;;;;79.78;42.47;;;;;;;10.63;99.09;98228.38;5038220;28;20041;-93
2021/11/22 10:28:44;;;;;;;73.28;42.58;;;;;;;10.71;99.15;98217.44;5036675;28;20056;-93
2021/11/22 10:31:13;;;;;;;85.55;42.22;;;;;;;10.82;98.62;98217.03;5035993;28;20056;-94
2021/11/22 10:33:40;;;;;;;81.50;44.92;;;;;;;11.00;98.34;98215.53;5032658;28;20037;-93
2021/11/22 10:36:08;;;;;;;80.47;44.00;;;;;;;11.15;96.89;98209.59;5034402;28;20038;-91
2021/11/22 10:38:37;;;;;;;79.10;43.75;;;;;;;11.20;95.72;98201.44;5035464;28;20092;-94
2021/11/22 10:41:04;;;;;;;;;;;;;;;11.49;94.85;98219.81;5043724;28;20080;-93
2021/11/22 10:43:33;;;;;;;81.65;42.10;;;;;;;11.53;94.10;98209.88;5035168;28;19917;-92
2021/11/22 10:46:00;;;;;;;74.85;42.67;;;;;;;11.57;92.98;98208.84;5034265;28;20038;-93
2021/11/22 10:48:28;;;;;;;70.32;40.15;;;;;;;11.55;93.71;98207.19;5035690;28;20045;-93
2021/11/22 10:51:12;;;;;;;76.18;41.38;;;;;;;11.54;93.25;98200.09;5035491;28;20503;-94
2021/11/22 10:53:41;;;;;;;79.43;41.50;;;;;;;11.61;92.56;98202.47;5037085;28;20576;-95
2021/11/22 10:56:10;;;;;;;70.57;40.58;;;;;;;11.64;93.30;98191.69;5037163;28;20105;-94
2021/11/22 10:58:40;;;;;;;72.45;41.80;;;;;;;11.66;92.76;98191.63;5035659;28;20096;-94
2021/11/22 11:01:20;;;;;;;74.20;42.30;;;;;;;11.85;92.48;98205.06;5034602;28;20099;-93
2021/11/22 11:03:51;;;;;;;78.22;41.60;;;;;;;11.87;92.13;98200.53;5034958;28;20041;-94
2021/11/22 11:06:17;;;;;;;75.18;41.80;;;;;;;12.03;91.59;98206.13;5037158;28;20067;-92
2021/11/22 11:08:43;;;;;;;73.75;41.03;;;;;;;11.98;90.84;98200.13;5044313;28;20045;-94
2021/11/22 11:11:10;;;;;;;74.18;41.47;;;;;;;11.88;90.72;98181.88;5036848;28;20045;-94
2021/11/22 11:13:44;;;;;;;71.40;40.95;;;;;;;11.98;90.96;98186.81;5032976;28;20042;-96
2021/11/22 11:16:11;;;;;;;71.38;38.85;;;;;;;12.16;90.88;98199.34;5032113;28;20050;-93
2021/11/22 11:18:38;;;;;;;76.88;39.70;;;;;;;12.13;89.76;98195.00;5035123;28;20563;-93
2021/11/22 11:21:05;;;;;;;77.30;38.80;;;;;;;12.10;90.32;98187.16;5034898;28;20037;-93
2021/11/22 11:23:31;;;;;;;73.32;40.95;;;;;;;12.23;90.34;98197.28;5034721;28;20046;-93
2021/11/22 11:26:00;;;;;;;69.50;39.55;;;;;;;12.21;89.39;98191.13;5034488;28;20045;-93